Time;durP1;ratioP1;P1;durP2;ratioP2;P2;SDS_P1;SDS_P2;PMS_P1;PMS_P2;Temp;Humidity;BMP_temperature;BMP_pressure;BME280_temperature;BME280_humidity;BME280_pressure;Samples;Min_cycle;Max_cycle;Signal;HPM_P1;HPM_P2
2023/01/27 00:02:19;;;;;;;10.07;6.50;;;5.60;99.90;;;;;;4951953;29;20065;-73
2023/01/27 00:04:45;;;;;;;8.77;6.32;;;5.60;99.90;;;;;;4941257;29;20043;-73
2023/01/27 00:07:10;;;;;;;10.05;7.07;;;5.60;99.90;;;;;;4933201;29;20043;-73
2023/01/27 00:09:36;;;;;;;12.02;7.45;;;5.60;99.90;;;;;;4932848;29;20123;-73
2023/01/27 00:14:46;;;;;;;10.98;7.32;;;5.60;99.90;;;;;;4948137;29;20453;-73
2023/01/27 00:17:11;;;;;;;8.30;6.67;;;5.60;99.90;;;;;;4936502;29;20429;-73
2023/01/27 00:19:37;;;;;;;10.05;7.25;;;5.60;99.90;;;;;;4944950;29;20741;-73
2023/01/27 00:24:47;;;;;;;8.75;6.75;;;5.60;99.90;;;;;;4932514;29;20165;-73
2023/01/27 00:27:12;;;;;;;10.88;7.15;;;5.60;99.90;;;;;;4932515;29;20150;-73
2023/01/27 00:29:39;;;;;;;9.18;6.72;;;5.60;99.90;;;;;;4932890;29;20047;-73
2023/01/27 00:34:49;;;;;;;9.18;7.05;;;5.60;99.90;;;;;;4933702;29;20054;-73
2023/01/27 00:37:15;;;;;;;8.85;6.80;;;5.60;99.90;;;;;;4951655;29;20047;-73
2023/01/27 00:39:41;;;;;;;9.63;6.80;;;5.60;99.90;;;;;;4955706;28;20052;-73
2023/01/27 00:42:07;;;;;;;8.70;6.30;;;5.70;99.90;;;;;;4944034;28;20560;-72
2023/01/27 00:44:32;;;;;;;9.70;5.78;;;5.60;99.90;;;;;;4951670;29;20176;-73
2023/01/27 00:46:58;;;;;;;8.93;6.15;;;5.60;99.90;;;;;;4951178;29;20074;-73
2023/01/27 00:49:24;;;;;;;9.95;5.72;;;5.60;99.90;;;;;;4951689;29;20387;-73
2023/01/27 00:51:50;;;;;;;7.40;4.72;;;5.60;99.90;;;;;;4948328;29;20055;-73
2023/01/27 00:54:16;;;;;;;10.18;5.18;;;5.60;99.90;;;;;;4950135;28;20467;-73
2023/01/27 00:56:41;;;;;;;8.27;4.80;;;5.60;99.90;;;;;;4948017;29;21168;-73
2023/01/27 00:59:07;;;;;;;9.77;4.47;;;5.60;99.90;;;;;;4932069;29;20062;-73
2023/01/27 01:01:33;;;;;;;7.40;4.28;;;5.60;99.90;;;;;;4920476;29;20062;-73
2023/01/27 01:04:00;;;;;;;8.88;4.63;;;5.60;99.90;;;;;;4951012;29;20050;-73
2023/01/27 01:06:26;;;;;;;5.88;4.20;;;5.60;99.90;;;;;;4951116;29;20035;-73
2023/01/27 01:08:52;;;;;;;;;;;5.60;99.90;;;;;;4951228;29;20483;-73
2023/01/27 01:11:22;;;;;;;8.20;4.50;;;5.60;99.90;;;;;;4948349;29;19933;-73
2023/01/27 01:13:48;;;;;;;8.70;4.70;;;5.60;99.90;;;;;;4932075;29;20058;-73
2023/01/27 01:16:21;;;;;;;5.25;3.75;;;5.60;99.90;;;;;;4931883;29;20488;-73
2023/01/27 01:18:46;;;;;;;6.72;3.95;;;5.50;99.90;;;;;;4931855;29;20040;-73
2023/01/27 01:21:12;;;;;;;6.43;3.95;;;5.50;99.90;;;;;;4931699;29;20122;-72
2023/01/27 01:23:40;;;;;;;6.15;4.38;;;5.50;99.90;;;;;;4916171;29;20035;-72
2023/01/27 01:26:06;;;;;;;6.03;4.28;;;5.50;99.90;;;;;;4935887;29;20549;-72
2023/01/27 01:28:32;;;;;;;7.88;4.05;;;5.50;99.90;;;;;;4950538;29;20039;-72
2023/01/27 01:31:24;;;;;;;5.55;4.20;;;5.50;99.90;;;;;;4950919;29;20142;-73
2023/01/27 01:33:49;;;;;;;4.90;3.72;;;5.50;99.90;;;;;;4948323;29;20406;-73
2023/01/27 01:36:17;;;;;;;5.73;3.40;;;5.40;99.90;;;;;;4951163;29;20055;-73
2023/01/27 01:38:43;;;;;;;6.00;3.67;;;5.40;99.90;;;;;;4950971;29;20611;-73
2023/01/27 01:41:16;;;;;;;6.22;3.38;;;5.40;99.90;;;;;;4964940;28;20057;-73
2023/01/27 01:43:42;;;;;;;4.72;2.95;;;5.40;99.90;;;;;;4940399;29;20154;-73
2023/01/27 01:46:09;;;;;;;4.47;2.75;;;5.40;99.90;;;;;;4950953;29;20453;-73
2023/01/27 01:48:54;;;;;;;3.83;2.40;;;5.40;99.90;;;;;;4950961;29;20039;-73
2023/01/27 01:51:43;;;;;;;2.95;1.98;;;5.30;99.90;;;;;;4950566;29;20055;-73
2023/01/27 01:54:16;;;;;;;3.97;2.40;;;5.20;99.90;;;;;;4950939;28;20047;-73
2023/01/27 01:57:15;;;;;;;3.75;2.42;;;5.20;99.90;;;;;;4935412;29;20570;-73
2023/01/27 01:59:45;;;;;;;4.28;2.40;;;5.20;99.90;;;;;;4953858;29;20487;-73
2023/01/27 02:02:16;;;;;;;6.75;2.45;;;5.20;99.90;;;;;;4950802;29;20137;-73
2023/01/27 02:05:01;;;;;;;5.22;2.58;;;5.20;99.90;;;;;;4954102;29;20054;-73
2023/01/27 02:07:56;;;;;;;4.07;2.60;;;5.20;99.90;;;;;;4954398;29;20052;-73
2023/01/27 02:10:22;;;;;;;4.88;2.40;;;5.20;99.90;;;;;;4954592;29;20043;-73
2023/01/27 02:12:47;;;;;;;5.60;2.33;;;5.20;99.90;;;;;;4952856;29;20199;-73
2023/01/27 02:15:13;;;;;;;5.93;2.38;;;5.20;99.90;;;;;;4954008;29;20185;-73
2023/01/27 02:17:39;;;;;;;4.40;1.80;;;5.10;99.90;;;;;;4954455;29;20047;-73
2023/01/27 02:20:33;;;;;;;3.80;2.10;;;5.10;99.90;;;;;;4935410;29;20391;-73
2023/01/27 02:23:36;;;;;;;5.30;1.90;;;5.10;99.90;;;;;;4935097;29;20059;-73
2023/01/27 02:26:21;;;;;;;4.97;1.90;;;5.10;99.90;;;;;;4935330;29;20060;-73
2023/01/27 02:28:56;;;;;;;5.60;1.70;;;5.10;99.90;;;;;;4934938;29;20053;-73
2023/01/27 02:31:22;;;;;;;3.83;1.65;;;5.10;99.90;;;;;;4934936;29;20503;-73
2023/01/27 02:33:48;;;;;;;3.60;1.73;;;5.10;99.90;;;;;;4936387;29;20130;-73
2023/01/27 02:36:15;;;;;;;;;;;5.10;99.90;;;;;;4954521;29;20102;-73
2023/01/27 02:38:50;;;;;;;3.43;1.40;;;5.10;99.90;;;;;;4947645;29;19926;-73
2023/01/27 02:41:29;;;;;;;2.55;1.30;;;5.10;99.90;;;;;;4948149;28;20387;-73
2023/01/27 02:43:55;;;;;;;3.80;1.10;;;5.10;99.90;;;;;;4942885;29;20066;-73
2023/01/27 02:46:21;;;;;;;5.35;1.40;;;5.10;99.90;;;;;;4953888;29;20047;-73
2023/01/27 02:48:46;;;;;;;2.22;1.10;;;5.10;99.90;;;;;;4952332;29;20047;-73
2023/01/27 02:51:12;;;;;;;4.78;1.60;;;5.00;99.90;;;;;;4923180;29;20050;-73
2023/01/27 02:53:38;;;;;;;3.28;1.20;;;5.00;99.90;;;;;;4937305;29;20518;-73
2023/01/27 02:56:04;;;;;;;1.67;0.88;;;5.00;99.90;;;;;;4953428;28;20055;-73
2023/01/27 02:58:30;;;;;;;1.98;0.80;;;4.90;99.90;;;;;;4939866;29;20052;-73
2023/01/27 03:00:56;;;;;;;1.90;1.00;;;4.90;99.90;;;;;;4934166;29;20820;-73
2023/01/27 03:03:21;;;;;;;2.38;1.17;;;4.90;99.90;;;;;;4934828;29;20052;-73
2023/01/27 03:05:50;;;;;;;4.15;1.23;;;4.80;99.90;;;;;;4934769;29;20411;-73
2023/01/27 03:08:17;;;;;;;1.85;1.00;;;4.80;99.90;;;;;;4939487;29;20047;-73
2023/01/27 03:10:43;;;;;;;5.75;1.42;;;4.80;99.90;;;;;;4953017;29;20461;-72
2023/01/27 03:13:09;;;;;;;2.67;1.00;;;4.80;99.90;;;;;;4953186;29;20043;-72
2023/01/27 03:18:20;;;;;;;1.45;0.90;;;4.70;99.90;;;;;;4953576;29;20058;-72
2023/01/27 03:20:47;;;;;;;3.58;1.60;;;4.70;99.90;;;;;;4939847;29;20403;-72
2023/01/27 03:23:18;;;;;;;1.02;0.80;;;4.80;99.90;;;;;;4934003;29;20035;-73
2023/01/27 03:25:45;;;;;;;1.92;0.98;;;4.70;99.90;;;;;;4942240;29;20054;-73
2023/01/27 03:28:12;;;;;;;5.85;1.23;;;4.60;99.90;;;;;;4953166;29;20122;-73
2023/01/27 03:30:38;;;;;;;;;;;4.60;99.90;;;;;;4937724;29;20055;-73
2023/01/27 03:33:06;;;;;;;4.25;0.90;;;4.60;99.90;;;;;;4953038;29;19918;-72
2023/01/27 03:35:37;;;;;;;2.85;0.93;;;4.60;99.90;;;;;;4952999;29;20187;-73
2023/01/27 03:46:24;;;;;;;3.58;0.93;;;4.60;99.90;;;;;;4952730;29;20054;-73
2023/01/27 03:48:52;;;;;;;3.50;1.00;;;4.60;99.90;;;;;;4952715;29;20043;-73
2023/01/27 03:51:20;;;;;;;3.30;0.82;;;4.60;99.90;;;;;;4953219;29;20102;-73
2023/01/27 03:53:46;;;;;;;7.00;1.17;;;4.60;99.90;;;;;;4952713;29;20788;-73
2023/01/27 03:56:12;;;;;;;2.17;0.82;;;4.60;99.90;;;;;;4952548;28;20070;-73
2023/01/27 03:58:38;;;;;;;2.65;0.80;;;4.60;99.90;;;;;;4952152;29;20051;-73
2023/01/27 04:01:10;;;;;;;3.35;1.10;;;4.50;99.90;;;;;;4935302;29;20059;-73
2023/01/27 04:09:12;;;;;;;2.65;0.80;;;4.50;99.90;;;;;;4934935;29;20472;-73
2023/01/27 04:14:34;;;;;;;3.38;0.93;;;4.30;99.90;;;;;;4934513;29;20106;-73
2023/01/27 04:17:20;;;;;;;2.17;0.90;;;4.40;99.90;;;;;;4951272;28;20546;-73
2023/01/27 04:19:46;;;;;;;1.70;0.80;;;4.30;99.90;;;;;;4916859;29;20051;-72
2023/01/27 04:22:14;;;;;;;1.77;0.70;;;4.40;99.90;;;;;;4933127;29;20162;-72
2023/01/27 04:24:40;;;;;;;1.90;1.00;;;4.30;99.90;;;;;;4933196;29;20043;-73
2023/01/27 04:27:08;;;;;;;2.28;1.10;;;4.30;99.90;;;;;;4933028;29;20119;-73
2023/01/27 04:29:39;;;;;;;2.45;1.00;;;4.30;99.90;;;;;;4933173;29;20071;-73
2023/01/27 04:32:07;;;;;;;3.53;0.90;;;4.30;99.90;;;;;;4932957;29;20039;-73
2023/01/27 04:34:32;;;;;;;2.33;1.00;;;4.30;99.90;;;;;;4947874;29;20051;-73
2023/01/27 04:36:59;;;;;;;2.88;0.90;;;4.30;99.90;;;;;;4933167;29;20052;-73
2023/01/27 04:39:24;;;;;;;3.67;0.93;;;4.30;99.90;;;;;;4936425;28;20126;-73
2023/01/27 04:41:50;;;;;;;1.63;0.90;;;4.30;99.90;;;;;;4935355;28;20151;-73
2023/01/27 04:44:19;;;;;;;3.22;1.05;;;4.30;99.90;;;;;;4917134;29;20051;-73
2023/01/27 04:46:45;;;;;;;2.33;0.90;;;4.30;99.90;;;;;;4932691;29;20099;-73
2023/01/27 04:49:11;;;;;;;3.83;1.17;;;4.30;99.90;;;;;;4932953;29;20039;-73
2023/01/27 04:51:37;;;;;;;3.72;1.38;;;4.30;99.90;;;;;;4948050;29;20051;-74
2023/01/27 04:54:04;;;;;;;2.40;1.20;;;4.20;99.90;;;;;;4941256;29;20139;-73
2023/01/27 04:56:38;;;;;;;3.17;1.35;;;4.30;99.90;;;;;;4949461;28;20070;-73
2023/01/27 04:59:07;;;;;;;3.72;1.40;;;4.20;99.90;;;;;;4945474;28;20132;-73
2023/01/27 05:01:33;;;;;;;3.58;1.20;;;4.20;99.90;;;;;;4937644;29;20054;-73
2023/01/27 05:03:59;;;;;;;4.25;1.27;;;4.30;99.90;;;;;;4967642;28;20047;-73
2023/01/27 05:06:25;;;;;;;3.25;1.33;;;4.20;99.90;;;;;;4943632;29;20036;-73
2023/01/27 05:08:52;;;;;;;3.28;1.30;;;4.20;99.90;;;;;;4949620;29;20134;-73
2023/01/27 05:11:18;;;;;;;4.72;1.80;;;4.20;99.90;;;;;;4951525;29;20093;-73
2023/01/27 05:13:44;;;;;;;2.50;1.17;;;4.20;99.90;;;;;;4951539;29;20046;-72
2023/01/27 05:16:22;;;;;;;2.25;1.20;;;4.20;99.90;;;;;;4942790;29;20051;-72
2023/01/27 05:18:49;;;;;;;3.72;1.60;;;4.30;99.90;;;;;;4941244;29;20514;-72
2023/01/27 05:21:21;;;;;;;2.47;1.58;;;4.30;99.90;;;;;;4942535;29;20047;-72
2023/01/27 05:23:47;;;;;;;2.92;1.50;;;4.30;99.90;;;;;;4933279;29;20118;-72
2023/01/27 05:26:21;;;;;;;1.90;1.10;;;4.30;99.90;;;;;;4951099;29;20067;-72
2023/01/27 05:28:49;;;;;;;2.97;1.50;;;4.30;99.90;;;;;;4950880;29;20094;-73
2023/01/27 05:31:21;;;;;;;2.55;1.23;;;4.30;99.90;;;;;;4943815;29;20495;-73
2023/01/27 05:33:49;;;;;;;2.08;1.20;;;4.20;99.90;;;;;;4932152;29;20040;-73
2023/01/27 05:36:17;;;;;;;3.47;1.23;;;4.20;99.90;;;;;;4931917;29;20044;-73
2023/01/27 05:38:44;;;;;;;2.85;1.30;;;4.20;99.90;;;;;;4942537;29;20455;-73
2023/01/27 05:41:11;;;;;;;2.70;1.30;;;4.30;99.90;;;;;;4942287;29;20133;-73
2023/01/27 05:43:39;;;;;;;2.30;1.20;;;4.30;99.90;;;;;;4951346;29;20101;-73
2023/01/27 05:46:09;;;;;;;3.35;1.30;;;4.30;99.90;;;;;;4950976;29;20062;-73
2023/01/27 05:48:38;;;;;;;2.08;1.13;;;4.30;99.90;;;;;;4950762;29;20078;-73
2023/01/27 05:51:05;;;;;;;2.92;1.17;;;4.30;99.90;;;;;;4948600;29;20047;-73
2023/01/27 05:53:31;;;;;;;2.30;1.10;;;4.20;99.90;;;;;;4940147;29;20050;-73
2023/01/27 05:55:56;;;;;;;2.15;1.10;;;4.30;99.90;;;;;;4933199;29;20051;-73
2023/01/27 05:58:23;;;;;;;2.80;1.00;;;4.30;99.90;;;;;;4921107;29;20051;-73
2023/01/27 06:00:48;;;;;;;2.25;1.10;;;4.20;99.90;;;;;;4925443;29;20073;-73
2023/01/27 06:03:14;;;;;;;2.25;0.93;;;4.20;99.90;;;;;;4921385;29;20122;-73
2023/01/27 06:05:51;;;;;;;1.17;0.80;;;4.20;99.90;;;;;;4927407;29;20043;-73
2023/01/27 06:08:17;;;;;;;2.88;1.00;;;4.20;99.90;;;;;;4919298;29;20039;-73
2023/01/27 06:10:43;;;;;;;2.00;1.02;;;4.10;99.90;;;;;;4940031;29;20464;-73
2023/01/27 06:13:08;;;;;;;2.97;1.00;;;4.10;99.90;;;;;;4932399;29;20457;-73
2023/01/27 06:15:34;;;;;;;2.22;0.80;;;4.10;99.90;;;;;;4933128;29;20039;-73
2023/01/27 06:17:59;;;;;;;1.70;0.80;;;4.10;99.90;;;;;;4927980;29;20040;-73
2023/01/27 06:20:25;;;;;;;2.22;1.08;;;4.10;99.90;;;;;;4925883;29;20051;-73
2023/01/27 06:22:51;;;;;;;1.75;0.80;;;4.10;99.90;;;;;;4924895;29;20115;-73
2023/01/27 06:25:20;;;;;;;2.65;1.38;;;4.00;99.90;;;;;;4925487;29;20486;-73
2023/01/27 06:27:45;;;;;;;1.08;0.68;;;4.00;99.90;;;;;;4914335;29;20031;-75
2023/01/27 06:30:11;;;;;;;2.97;0.90;;;3.90;99.90;;;;;;4916013;29;20392;-73
2023/01/27 06:32:37;;;;;;;1.13;0.93;;;4.00;99.90;;;;;;4910553;28;20058;-73
2023/01/27 06:35:03;;;;;;;2.65;0.90;;;4.00;99.90;;;;;;4933912;29;20050;-73
2023/01/27 06:37:29;;;;;;;1.50;0.70;;;4.00;99.90;;;;;;4931990;29;20518;-73
2023/01/27 06:39:54;;;;;;;1.13;0.65;;;4.00;99.90;;;;;;4915756;29;20102;-73
2023/01/27 06:42:20;;;;;;;3.08;0.90;;;4.00;99.90;;;;;;4909156;29;20131;-72
2023/01/27 06:44:46;;;;;;;2.05;0.80;;;4.10;99.90;;;;;;4937344;29;20062;-72
2023/01/27 06:47:11;;;;;;;3.08;1.00;;;4.10;99.90;;;;;;4919211;29;20526;-72
2023/01/27 06:49:37;;;;;;;2.10;1.00;;;4.00;99.90;;;;;;4926413;29;20194;-72
2023/01/27 06:52:03;;;;;;;3.47;1.23;;;4.00;99.90;;;;;;4929991;29;20062;-72
2023/01/27 06:54:28;;;;;;;3.08;0.95;;;4.10;99.90;;;;;;4905111;28;20334;-72
2023/01/27 06:56:54;;;;;;;2.30;0.80;;;4.10;99.90;;;;;;4926070;29;20104;-72
2023/01/27 06:59:20;;;;;;;2.05;0.80;;;4.10;99.90;;;;;;4951251;29;20050;-73
2023/01/27 07:01:45;;;;;;;2.33;0.88;;;4.00;99.90;;;;;;4944577;29;20138;-73
2023/01/27 07:04:11;;;;;;;2.10;0.80;;;4.00;99.90;;;;;;4926001;29;20054;-72
2023/01/27 07:06:37;;;;;;;2.10;0.90;;;4.00;99.90;;;;;;4920440;29;20043;-72
2023/01/27 07:09:02;;;;;;;1.90;0.85;;;4.00;99.90;;;;;;4943562;29;20046;-72
2023/01/27 07:11:28;;;;;;;1.50;0.70;;;4.00;99.90;;;;;;4944517;29;20046;-72
2023/01/27 07:13:54;;;;;;;2.35;1.10;;;4.00;99.90;;;;;;4945120;28;20043;-73
2023/01/27 07:16:20;;;;;;;2.28;1.13;;;4.00;99.90;;;;;;4946067;29;20471;-72
2023/01/27 07:18:45;;;;;;;2.28;1.00;;;4.00;99.90;;;;;;4944544;28;20039;-72
2023/01/27 07:21:11;;;;;;;3.38;1.40;;;4.00;99.90;;;;;;4945432;29;20580;-72
2023/01/27 07:23:37;;;;;;;3.65;1.20;;;4.00;99.90;;;;;;4924995;29;20047;-72
2023/01/27 07:26:03;;;;;;;2.38;0.93;;;4.10;99.90;;;;;;4927566;29;20517;-72
2023/01/27 07:28:29;;;;;;;3.22;1.02;;;4.10;99.90;;;;;;4942899;28;20043;-72
2023/01/27 07:30:54;;;;;;;1.65;0.70;;;4.10;99.90;;;;;;4940409;29;20118;-72
2023/01/27 07:33:20;;;;;;;3.92;1.27;;;4.20;99.90;;;;;;4943624;29;20043;-72
2023/01/27 07:35:48;;;;;;;2.60;0.85;;;4.20;99.90;;;;;;4944568;29;20032;-72
2023/01/27 07:38:14;;;;;;;1.55;0.82;;;4.20;99.90;;;;;;4941005;29;20043;-72
2023/01/27 07:40:40;;;;;;;4.00;0.93;;;4.20;99.90;;;;;;4945568;29;20055;-72
2023/01/27 07:43:06;;;;;;;1.63;0.93;;;4.20;99.90;;;;;;4942805;28;20055;-73
2023/01/27 07:45:32;;;;;;;4.28;0.90;;;4.20;99.90;;;;;;4939977;29;20046;-72
2023/01/27 07:48:06;;;;;;;3.53;0.82;;;4.20;99.90;;;;;;4947597;29;20111;-72
2023/01/27 07:50:32;;;;;;;3.40;1.08;;;4.30;99.90;;;;;;4935767;29;20514;-72
2023/01/27 07:53:02;;;;;;;3.40;0.90;;;4.30;99.90;;;;;;4937811;29;20043;-72
2023/01/27 07:55:30;;;;;;;5.53;0.88;;;4.30;99.90;;;;;;4950307;28;20066;-72
2023/01/27 07:57:56;;;;;;;1.95;0.90;;;4.30;99.90;;;;;;4960269;28;20063;-72
2023/01/27 08:00:23;;;;;;;3.63;1.10;;;4.30;99.90;;;;;;4951623;29;20051;-72
2023/01/27 08:02:53;;;;;;;2.17;0.98;;;4.30;99.90;;;;;;4951065;29;20046;-72
2023/01/27 08:05:19;;;;;;;4.15;1.17;;;4.30;99.90;;;;;;4933350;29;20200;-72
2023/01/27 08:07:45;;;;;;;5.28;1.20;;;4.30;99.90;;;;;;4933412;29;20043;-72
2023/01/27 08:10:12;;;;;;;5.28;1.30;;;4.40;99.90;;;;;;4937191;29;20062;-72
2023/01/27 08:12:37;;;;;;;3.95;1.20;;;4.40;99.90;;;;;;4936472;29;20047;-72
2023/01/27 08:15:04;;;;;;;4.70;1.40;;;4.40;99.90;;;;;;4931460;29;20070;-72
2023/01/27 08:17:29;;;;;;;3.25;1.20;;;4.40;99.90;;;;;;4951785;29;20047;-72
2023/01/27 08:19:55;;;;;;;3.15;1.38;;;4.50;99.90;;;;;;4938293;29;20058;-72
2023/01/27 08:22:21;;;;;;;3.88;1.20;;;4.50;99.90;;;;;;4932962;29;20058;-72
2023/01/27 08:24:48;;;;;;;4.82;1.70;;;4.50;99.90;;;;;;4933885;29;20391;-72
2023/01/27 08:27:14;;;;;;;2.53;0.82;;;4.50;99.90;;;;;;4939978;29;20082;-72
2023/01/27 08:29:39;;;;;;;3.10;1.10;;;4.50;99.90;;;;;;4952123;29;20460;-72
2023/01/27 08:32:05;;;;;;;2.22;0.90;;;4.60;99.90;;;;;;4948474;28;20433;-72
2023/01/27 08:34:32;;;;;;;3.40;1.30;;;4.60;99.90;;;;;;4949743;28;20043;-72
2023/01/27 08:36:58;;;;;;;3.63;1.20;;;4.60;99.90;;;;;;4932834;29;20130;-72
2023/01/27 08:39:23;;;;;;;3.85;1.08;;;4.60;99.90;;;;;;4939021;29;20087;-72
2023/01/27 08:41:49;;;;;;;3.13;1.00;;;4.60;99.90;;;;;;4920660;29;20527;-72
2023/01/27 08:44:15;;;;;;;3.60;1.05;;;4.70;99.90;;;;;;4951820;29;20047;-72
2023/01/27 08:46:40;;;;;;;2.88;1.40;;;4.70;99.90;;;;;;4942164;29;20051;-72
2023/01/27 08:49:06;;;;;;;4.40;1.17;;;4.80;99.90;;;;;;4947424;29;20498;-72
2023/01/27 08:51:32;;;;;;;2.20;1.10;;;4.80;99.90;;;;;;4941667;29;20047;-72
2023/01/27 08:53:57;;;;;;;2.05;1.00;;;4.80;99.90;;;;;;4925621;29;20053;-72
2023/01/27 08:56:23;;;;;;;4.63;1.10;;;4.90;99.90;;;;;;4951334;28;20134;-72
2023/01/27 08:58:51;;;;;;;4.03;1.23;;;4.90;99.90;;;;;;4948964;29;20452;-72
2023/01/27 09:01:18;;;;;;;2.65;1.00;;;4.90;99.90;;;;;;4949366;29;20039;-72
2023/01/27 09:03:44;;;;;;;2.30;1.20;;;4.90;99.90;;;;;;4947715;28;20046;-72
2023/01/27 09:06:11;;;;;;;3.97;1.30;;;4.90;99.90;;;;;;4950831;29;20075;-72
2023/01/27 09:08:37;;;;;;;3.17;1.25;;;5.00;99.90;;;;;;4947204;28;20133;-72
2023/01/27 09:11:16;;;;;;;3.45;1.20;;;4.90;99.90;;;;;;4949657;29;20035;-72
2023/01/27 09:13:42;;;;;;;5.05;1.50;;;5.00;99.90;;;;;;4940169;29;20453;-72
2023/01/27 09:16:08;;;;;;;3.10;1.30;;;5.00;99.90;;;;;;4900324;29;20050;-72
2023/01/27 09:18:34;;;;;;;3.38;1.30;;;5.00;99.90;;;;;;4933557;29;20396;-72
2023/01/27 09:21:04;;;;;;;6.20;1.50;;;5.00;99.90;;;;;;4916032;29;20051;-72
2023/01/27 09:23:30;;;;;;;2.63;1.30;;;5.10;99.90;;;;;;4941458;29;20047;-72
2023/01/27 09:25:56;;;;;;;3.63;1.30;;;5.10;99.90;;;;;;4950935;29;20137;-72
2023/01/27 09:28:22;;;;;;;2.33;1.13;;;5.00;99.90;;;;;;4940225;29;20050;-72
2023/01/27 09:30:48;;;;;;;4.15;1.80;;;5.10;99.90;;;;;;4946326;29;20039;-72
2023/01/27 09:33:14;;;;;;;;;;;5.20;99.90;;;;;;4951805;29;20121;-72
2023/01/27 09:35:47;;;;;;;2.55;1.30;;;5.20;99.90;;;;;;4950365;29;19919;-72
2023/01/27 09:38:17;;;;;;;4.60;1.23;;;5.20;99.90;;;;;;4916009;29;20051;-72
2023/01/27 09:40:58;;;;;;;3.45;1.10;;;5.10;99.90;;;;;;4948042;29;20061;-72
2023/01/27 09:43:39;;;;;;;3.33;1.27;;;5.20;99.90;;;;;;4937865;29;20047;-72
2023/01/27 09:46:17;;;;;;;2.50;1.20;;;5.10;99.90;;;;;;4940558;29;20069;-72
2023/01/27 09:48:52;;;;;;;3.30;1.20;;;5.10;99.90;;;;;;4939219;29;20043;-72
2023/01/27 09:51:50;;;;;;;3.10;1.08;;;5.10;99.90;;;;;;4947316;29;20487;-72
2023/01/27 09:54:41;;;;;;;3.72;1.50;;;5.10;99.90;;;;;;4943126;28;20047;-72
2023/01/27 09:57:35;;;;;;;2.83;1.10;;;5.20;99.90;;;;;;4945904;29;20063;-72
2023/01/27 10:00:19;;;;;;;1.65;0.90;;;5.20;99.90;;;;;;4946028;29;20047;-72
2023/01/27 10:03:03;;;;;;;2.53;0.93;;;5.20;99.90;;;;;;4922270;29;20059;-72
2023/01/27 10:05:38;;;;;;;0.70;0.70;;;5.10;99.90;;;;;;4935329;29;20043;-72
2023/01/27 10:08:09;;;;;;;3.35;1.10;;;5.10;99.90;;;;;;4950057;29;20487;-72
2023/01/27 10:10:53;;;;;;;1.52;0.60;;;5.10;99.90;;;;;;4950952;29;20047;-72
2023/01/27 10:13:37;;;;;;;2.10;0.60;;;5.10;99.90;;;;;;4945259;29;20036;-72
2023/01/27 10:16:35;;;;;;;2.30;0.43;;;5.00;99.90;;;;;;4941180;28;20111;-72
2023/01/27 10:19:04;;;;;;;0.93;0.77;;;5.00;99.90;;;;;;4939248;29;20059;-72
2023/01/27 10:21:34;;;;;;;0.77;0.70;;;5.00;99.90;;;;;;4930340;29;20047;-72
2023/01/27 10:24:23;;;;;;;1.17;0.82;;;5.00;99.90;;;;;;4938651;29;20439;-72
2023/01/27 10:27:04;;;;;;;2.00;0.95;;;5.00;99.90;;;;;;4936535;29;20050;-72
2023/01/27 10:29:45;;;;;;;3.53;0.80;;;5.00;99.90;;;;;;4953652;29;20047;-72
2023/01/27 10:32:43;;;;;;;1.42;0.95;;;5.10;99.90;;;;;;4943779;28;20062;-72
2023/01/27 10:35:15;;;;;;;1.20;0.70;;;5.10;99.90;;;;;;4940038;29;20118;-72
2023/01/27 10:37:52;;;;;;;0.63;0.50;;;5.10;99.90;;;;;;4941783;29;20083;-74
2023/01/27 10:40:18;;;;;;;0.77;0.60;;;5.10;99.90;;;;;;4935598;29;20051;-72
2023/01/27 10:43:03;;;;;;;0.90;0.73;;;5.10;99.90;;;;;;4947655;29;20070;-72
2023/01/27 10:45:49;;;;;;;0.75;0.57;;;5.00;99.90;;;;;;4920774;29;20396;-72
2023/01/27 10:48:39;;;;;;;0.77;0.55;;;5.00;99.90;;;;;;4947779;29;20596;-72
2023/01/27 10:51:10;;;;;;;1.20;0.50;;;4.90;99.90;;;;;;4951914;29;20071;-72
2023/01/27 10:54:05;;;;;;;1.23;0.57;;;4.90;99.90;;;;;;4942816;29;20058;-72
2023/01/27 10:56:52;;;;;;;1.50;1.10;;;5.00;99.90;;;;;;4945958;29;20083;-72
2023/01/27 10:59:27;;;;;;;1.90;1.00;;;4.90;99.90;;;;;;4934833;29;20143;-72
2023/01/27 11:01:59;;;;;;;1.42;1.00;;;4.80;99.90;;;;;;4935641;29;20047;-72
2023/01/27 11:04:44;;;;;;;2.00;1.00;;;4.80;99.90;;;;;;4940698;29;20444;-72
2023/01/27 11:07:19;;;;;;;1.33;1.13;;;4.80;99.90;;;;;;4951743;29;20051;-72
2023/01/27 11:10:02;;;;;;;1.70;1.15;;;4.80;99.90;;;;;;4920102;29;20483;-72
2023/01/27 11:12:37;;;;;;;3.50;1.40;;;4.70;99.90;;;;;;4935763;29;20051;-72
2023/01/27 11:15:28;;;;;;;1.60;1.33;;;4.70;99.90;;;;;;4950815;29;20059;-72
2023/01/27 11:18:08;;;;;;;1.65;1.30;;;4.70;99.90;;;;;;4947733;29;20043;-72
2023/01/27 11:20:41;;;;;;;1.98;1.25;;;4.60;99.90;;;;;;4949515;29;20077;-72
2023/01/27 11:23:17;;;;;;;1.92;1.60;;;4.70;99.90;;;;;;4934953;29;20446;-72
2023/01/27 11:26:20;;;;;;;2.83;2.00;;;4.70;99.90;;;;;;4934082;29;20055;-72
2023/01/27 11:29:13;;;;;;;2.00;1.65;;;4.70;99.90;;;;;;4935258;29;20043;-72
2023/01/27 11:31:47;;;;;;;2.25;1.90;;;4.60;99.90;;;;;;4944506;29;20055;-72
2023/01/27 11:34:18;;;;;;;2.38;1.98;;;4.60;99.90;;;;;;4939326;29;20066;-74
2023/01/27 11:36:44;;;;;;;1.90;1.70;;;4.60;99.90;;;;;;4933663;29;20152;-72
2023/01/27 11:39:10;;;;;;;;;;;4.60;99.90;;;;;;4947697;29;20035;-72
2023/01/27 11:41:40;;;;;;;2.88;2.15;;;4.60;99.90;;;;;;4933766;29;20017;-73
2023/01/27 11:44:13;;;;;;;2.47;1.95;;;4.50;99.90;;;;;;4943628;29;20050;-72
2023/01/27 11:46:39;;;;;;;2.72;1.92;;;4.50;99.90;;;;;;4931931;29;20130;-71
2023/01/27 11:49:06;;;;;;;2.58;2.10;;;4.60;99.90;;;;;;4932897;29;20039;-71
2023/01/27 11:51:38;;;;;;;2.65;2.25;;;4.50;99.90;;;;;;4951141;29;20087;-72
2023/01/27 11:54:24;;;;;;;2.75;2.15;;;4.50;99.90;;;;;;4951192;29;20051;-71
2023/01/27 11:56:50;;;;;;;2.50;2.30;;;4.50;99.90;;;;;;4932418;29;20101;-74
2023/01/27 11:59:26;;;;;;;3.83;2.55;;;4.40;99.90;;;;;;4940684;29;20059;-71
2023/01/27 12:02:00;;;;;;;3.15;2.60;;;4.40;99.90;;;;;;4939518;29;20059;-75
2023/01/27 12:04:38;;;;;;;3.60;2.40;;;4.40;99.90;;;;;;4928339;29;20050;-72
2023/01/27 12:07:10;;;;;;;3.13;2.22;;;4.50;99.90;;;;;;4949952;29;20122;-72
2023/01/27 12:09:37;;;;;;;3.13;2.83;;;4.50;99.90;;;;;;4943626;29;20470;-71
2023/01/27 12:12:24;;;;;;;2.60;2.40;;;4.50;99.90;;;;;;4941451;29;20085;-71
2023/01/27 12:14:56;;;;;;;3.05;2.38;;;4.50;99.90;;;;;;4941499;29;20053;-72
2023/01/27 12:17:36;;;;;;;3.47;2.67;;;4.50;99.90;;;;;;4941403;29;20622;-72
2023/01/27 12:20:24;;;;;;;3.63;3.10;;;4.50;99.90;;;;;;4951891;29;20047;-72
2023/01/27 12:22:58;;;;;;;4.28;3.25;;;4.50;99.90;;;;;;4944993;28;20459;-72
2023/01/27 12:25:46;;;;;;;4.20;3.13;;;4.50;99.90;;;;;;4947683;29;20043;-72
2023/01/27 12:28:25;;;;;;;4.68;3.42;;;4.50;99.90;;;;;;4924232;29;20047;-72
2023/01/27 12:30:53;;;;;;;5.32;3.92;;;4.50;99.90;;;;;;4940031;29;20058;-72
2023/01/27 12:33:27;;;;;;;7.68;4.95;;;4.50;99.90;;;;;;4942728;29;20098;-72
2023/01/27 12:35:59;;;;;;;5.13;3.75;;;4.50;99.90;;;;;;4931966;29;20106;-74
2023/01/27 12:38:30;;;;;;;5.00;3.90;;;4.50;99.90;;;;;;4940878;28;20043;-72
2023/01/27 12:41:02;;;;;;;6.05;3.05;;;4.50;99.90;;;;;;4929099;29;20307;-72
2023/01/27 12:43:28;;;;;;;4.13;3.72;;;4.50;99.90;;;;;;4945670;28;20057;-72
2023/01/27 12:46:17;;;;;;;3.00;2.70;;;4.50;99.90;;;;;;4945306;29;20038;-72
2023/01/27 12:48:49;;;;;;;3.67;2.50;;;4.50;99.90;;;;;;4941786;28;20054;-74
2023/01/27 12:51:23;;;;;;;3.35;2.70;;;4.50;99.90;;;;;;4939885;29;20126;-72
2023/01/27 12:53:50;;;;;;;3.20;2.88;;;4.50;99.90;;;;;;4941587;29;20062;-72
2023/01/27 12:56:21;;;;;;;3.38;2.50;;;4.50;99.90;;;;;;4941281;28;20059;-72
2023/01/27 12:58:53;;;;;;;2.67;2.20;;;4.50;99.90;;;;;;4942523;29;20039;-72
2023/01/27 13:01:19;;;;;;;2.78;2.45;;;4.50;99.90;;;;;;4941720;29;20130;-72
2023/01/27 13:03:48;;;;;;;2.23;1.90;;;4.50;99.90;;;;;;4940614;29;20586;-71
2023/01/27 13:06:26;;;;;;;1.90;1.63;;;4.50;99.90;;;;;;4949810;29;20036;-71
2023/01/27 13:08:52;;;;;;;2.60;1.80;;;4.50;99.90;;;;;;4945684;28;20047;-72
2023/01/27 13:11:29;;;;;;;2.00;1.80;;;4.50;99.90;;;;;;4944719;28;20043;-72
2023/01/27 13:13:56;;;;;;;2.25;1.80;;;4.50;99.90;;;;;;4939968;29;20040;-72
2023/01/27 13:16:27;;;;;;;2.03;1.80;;;4.50;99.90;;;;;;4948970;29;20150;-72
2023/01/27 13:18:55;;;;;;;3.08;2.20;;;4.50;99.90;;;;;;4935671;29;20047;-71
2023/01/27 13:21:27;;;;;;;5.93;2.70;;;4.50;99.90;;;;;;4944968;28;20043;-74
2023/01/27 13:23:54;;;;;;;2.67;2.40;;;4.60;99.90;;;;;;4937669;29;20059;-74
2023/01/27 13:26:30;;;;;;;2.42;2.15;;;4.60;99.90;;;;;;4931990;29;20118;-74
2023/01/27 13:29:23;;;;;;;2.35;1.80;;;4.50;99.90;;;;;;4934335;29;20107;-73
2023/01/27 13:32:03;;;;;;;1.92;1.70;;;4.60;99.90;;;;;;4949892;29;20047;-74
2023/01/27 13:34:52;;;;;;;1.38;1.25;;;4.60;99.90;;;;;;4938884;29;20047;-75
2023/01/27 13:37:27;;;;;;;1.48;1.30;;;4.60;99.90;;;;;;4931872;29;20048;-74
2023/01/27 13:39:58;;;;;;;1.98;1.30;;;4.60;99.90;;;;;;4933788;29;20058;-75
2023/01/27 13:42:49;;;;;;;3.03;2.28;;;4.50;99.90;;;;;;4936606;29;20122;-72
2023/01/27 13:45:20;;;;;;;3.53;2.40;;;4.50;99.90;;;;;;4940869;28;20685;-73